createdAt,value
2018-12-30T00:00:13.883Z,74.23
2018-12-30T00:02:43.423Z,74.27
2018-12-30T00:05:13.255Z,74.00
2018-12-30T00:07:42.788Z,74.23
2018-12-30T00:10:12.404Z,74.06
2018-12-30T00:12:42.274Z,73.74
2018-12-30T00:15:12.089Z,73.56
2018-12-30T00:17:41.653Z,73.59
2018-12-30T00:20:11.201Z,73.22
2018-12-30T00:22:40.819Z,73.52
2018-12-30T00:25:10.350Z,73.15
2018-12-30T00:27:39.901Z,72.86
2018-12-30T00:30:09.952Z,72.78
2018-12-30T00:32:39.768Z,72.72
2018-12-30T00:35:09.381Z,72.83
2018-12-30T00:37:38.919Z,72.84
2018-12-30T00:40:08.559Z,72.76
2018-12-30T00:42:38.480Z,72.62
2018-12-30T00:45:08.019Z,72.69
2018-12-30T00:47:37.568Z,73.09
2018-12-30T00:50:07.120Z,72.95
2018-12-30T00:52:36.665Z,73.22
2018-12-30T00:55:06.352Z,73.35
2018-12-30T00:57:35.908Z,73.79
2018-12-30T01:00:07.921Z,73.91
2018-12-30T01:02:37.487Z,73.83
2018-12-30T01:05:07.112Z,73.35
2018-12-30T01:07:36.636Z,73.29
2018-12-30T01:10:08.783Z,73.99
2018-12-30T01:12:38.341Z,73.94
2018-12-30T01:15:07.953Z,74.28
2018-12-30T01:17:37.719Z,74.40
2018-12-30T01:20:07.259Z,74.42
2018-12-30T01:22:36.807Z,74.76
2018-12-30T01:25:06.838Z,74.83
2018-12-30T01:27:37.604Z,74.53
2018-12-30T01:30:07.910Z,74.67
2018-12-30T01:32:37.460Z,74.90
2018-12-30T01:35:07.066Z,74.99
2018-12-30T01:40:17.556Z,74.77
2018-12-30T01:42:48.558Z,74.43
2018-12-30T01:45:18.102Z,74.75
2018-12-30T01:47:47.660Z,74.66
2018-12-30T01:50:17.220Z,74.55
2018-12-30T01:52:47.190Z,74.48
2018-12-30T01:55:16.784Z,74.33
2018-12-30T01:57:46.326Z,74.45
2018-12-30T02:00:15.851Z,74.37
2018-12-30T02:02:45.400Z,74.49
2018-12-30T02:05:14.946Z,74.56
2018-12-30T02:07:45.107Z,74.59
2018-12-30T02:10:15.295Z,74.70
2018-12-30T02:12:44.911Z,74.71
2018-12-30T02:15:14.468Z,74.70
2018-12-30T02:17:44.025Z,74.71
2018-12-30T02:20:13.556Z,74.84
2018-12-30T02:22:43.126Z,74.88
2018-12-30T02:25:14.546Z,74.89
2018-12-30T02:27:44.119Z,74.80
2018-12-30T02:30:13.750Z,74.81
2018-12-30T02:32:44.064Z,75.21
2018-12-30T02:35:14.122Z,75.16
2018-12-30T02:37:43.793Z,74.94
2018-12-30T02:40:13.536Z,74.85
2018-12-30T02:42:43.096Z,74.91
2018-12-30T02:45:13.934Z,74.60
2018-12-30T02:47:43.556Z,74.63
2018-12-30T02:50:13.421Z,74.13
2018-12-30T02:52:42.993Z,73.59
2018-12-30T02:55:14.339Z,73.50
2018-12-30T02:57:43.879Z,73.15
2018-12-30T03:00:13.496Z,72.26
2018-12-30T03:02:43.067Z,72.01
2018-12-30T03:05:13.003Z,71.93
2018-12-30T03:07:42.556Z,72.40
2018-12-30T03:10:12.119Z,72.29
2018-12-30T03:12:41.638Z,72.60
2018-12-30T03:15:11.192Z,72.81
2018-12-30T03:17:41.129Z,72.86
2018-12-30T03:20:10.821Z,72.11
2018-12-30T03:22:40.341Z,72.36
2018-12-30T03:25:09.908Z,72.54
2018-12-30T03:27:39.471Z,72.73
2018-12-30T03:30:09.685Z,72.62
2018-12-30T03:32:39.510Z,72.55
2018-12-30T03:35:09.042Z,72.39
2018-12-30T03:37:38.589Z,72.30
2018-12-30T03:40:09.775Z,72.46
2018-12-30T03:42:39.312Z,72.76
2018-12-30T03:45:08.837Z,73.02
2018-12-30T03:47:38.394Z,73.14
2018-12-30T03:50:07.991Z,73.10
2018-12-30T03:52:37.527Z,73.06
2018-12-30T03:55:07.216Z,73.14
2018-12-30T03:57:39.132Z,73.15
2018-12-30T04:00:08.972Z,72.87
2018-12-30T04:02:38.464Z,72.95
2018-12-30T04:05:07.994Z,73.12
2018-12-30T04:07:37.577Z,73.13
2018-12-30T04:10:07.122Z,72.95
2018-12-30T04:12:36.671Z,72.96
2018-12-30T04:15:07.457Z,72.92
2018-12-30T04:17:37.803Z,72.74
2018-12-30T04:20:07.465Z,72.77
2018-12-30T04:22:37.007Z,73.22
2018-12-30T04:25:06.585Z,73.08
2018-12-30T04:27:36.142Z,72.98
2018-12-30T04:30:07.225Z,73.15
2018-12-30T04:32:36.738Z,73.18
2018-12-30T04:35:06.736Z,73.22
2018-12-30T04:37:37.481Z,73.30
2018-12-30T04:40:07.348Z,73.48
2018-12-30T04:42:37.142Z,73.64
2018-12-30T04:45:06.826Z,73.77
2018-12-30T04:47:36.372Z,73.87
2018-12-30T04:50:06.969Z,73.77
2018-12-30T04:52:39.755Z,73.80
2018-12-30T04:55:09.290Z,73.85
2018-12-30T04:57:38.839Z,74.14
2018-12-30T05:00:08.391Z,74.05
2018-12-30T05:02:37.953Z,74.00
2018-12-30T05:05:07.493Z,74.10
2018-12-30T05:07:38.133Z,74.13
2018-12-30T05:10:10.576Z,74.05
2018-12-30T05:12:40.144Z,74.16
2018-12-30T05:15:09.701Z,74.27
2018-12-30T05:17:39.676Z,74.32
2018-12-30T05:20:09.199Z,74.47
2018-12-30T05:22:38.754Z,74.42
2018-12-30T05:25:08.806Z,74.56
2018-12-30T05:27:38.932Z,74.52
2018-12-30T05:30:08.437Z,74.63
2018-12-30T05:32:38.337Z,74.91
2018-12-30T05:35:09.759Z,74.94
2018-12-30T05:37:39.290Z,74.96
2018-12-30T05:40:09.601Z,75.09
2018-12-30T05:42:39.667Z,75.33
2018-12-30T05:45:10.203Z,75.11
2018-12-30T05:47:40.070Z,75.58
2018-12-30T05:50:11.290Z,75.38
2018-12-30T05:52:43.203Z,75.40
2018-12-30T05:55:13.149Z,75.39
2018-12-30T05:57:42.680Z,75.39
2018-12-30T06:00:12.208Z,75.54
2018-12-30T06:02:41.748Z,75.66
2018-12-30T06:05:11.536Z,75.68
2018-12-30T06:07:41.046Z,75.62
2018-12-30T06:10:10.603Z,75.67
2018-12-30T06:12:40.142Z,75.68
2018-12-30T06:15:09.760Z,75.91
2018-12-30T06:17:39.295Z,75.94
2018-12-30T06:20:08.970Z,76.02
2018-12-30T06:22:38.528Z,75.98
2018-12-30T06:25:08.186Z,76.00
2018-12-30T06:27:39.215Z,76.21
2018-12-30T06:30:08.790Z,76.24
2018-12-30T06:32:40.269Z,76.41
2018-12-30T06:35:11.925Z,76.38
2018-12-30T06:37:41.932Z,76.39
2018-12-30T06:40:11.753Z,76.54
2018-12-30T06:42:41.334Z,76.42
2018-12-30T06:45:10.894Z,76.46
2018-12-30T06:47:40.458Z,76.55
2018-12-30T06:50:09.990Z,76.38
2018-12-30T06:52:39.531Z,76.37
2018-12-30T06:55:09.086Z,76.48
2018-12-30T06:57:38.667Z,76.75
2018-12-30T07:00:08.205Z,76.94
2018-12-30T07:02:37.755Z,76.99
2018-12-30T07:05:07.443Z,76.91
2018-12-30T07:07:42.532Z,77.10
2018-12-30T07:10:13.217Z,77.27
2018-12-30T07:12:42.733Z,77.28
2018-12-30T07:15:12.280Z,77.29
2018-12-30T07:17:42.322Z,77.05
2018-12-30T07:20:13.493Z,76.92
2018-12-30T07:22:43.452Z,76.88
2018-12-30T07:25:13.036Z,77.19
2018-12-30T07:27:42.663Z,77.16
2018-12-30T07:30:15.959Z,77.10
2018-12-30T07:32:45.441Z,77.20
2018-12-30T07:35:15.025Z,77.27
2018-12-30T07:37:46.472Z,77.39
2018-12-30T07:40:16.260Z,77.36
2018-12-30T07:42:46.253Z,77.37
2018-12-30T07:45:16.102Z,77.77
2018-12-30T07:47:46.312Z,78.08
2018-12-30T07:50:16.213Z,77.92
2018-12-30T07:52:46.310Z,77.96
2018-12-30T07:55:16.306Z,78.00
2018-12-30T07:57:45.823Z,78.36
2018-12-30T08:00:15.364Z,78.17
2018-12-30T08:02:44.915Z,78.07
2018-12-30T08:05:14.442Z,77.79
2018-12-30T08:07:43.975Z,77.89
2018-12-30T08:10:13.973Z,77.91
2018-12-30T08:12:43.874Z,77.68
2018-12-30T08:15:13.537Z,77.86
2018-12-30T08:17:43.494Z,77.94
2018-12-30T08:20:13.545Z,78.32
2018-12-30T08:22:43.406Z,78.36
2018-12-30T08:25:13.581Z,78.43
2018-12-30T08:27:43.619Z,78.44
2018-12-30T08:30:13.940Z,78.44
2018-12-30T08:32:44.086Z,78.64
2018-12-30T08:35:13.879Z,78.59
2018-12-30T08:37:43.796Z,78.43
2018-12-30T08:40:13.860Z,78.41
2018-12-30T08:42:43.991Z,78.39
2018-12-30T08:45:15.808Z,78.35
2018-12-30T08:47:45.631Z,78.23
2018-12-30T08:50:15.592Z,78.22
2018-12-30T08:52:45.352Z,78.38
2018-12-30T08:55:17.871Z,78.37
2018-12-30T08:57:47.425Z,78.12
2018-12-30T09:00:16.952Z,78.31
2018-12-30T09:02:46.682Z,78.28
2018-12-30T09:05:17.449Z,78.14
2018-12-30T09:07:47.495Z,78.26
2018-12-30T09:10:17.428Z,78.17
2018-12-30T09:12:47.478Z,78.02
2018-12-30T09:15:17.820Z,78.10
2018-12-30T09:17:47.439Z,78.06
2018-12-30T09:20:17.435Z,77.80
2018-12-30T09:22:47.340Z,77.58
2018-12-30T09:25:17.243Z,77.42
2018-12-30T09:27:47.267Z,77.24
2018-12-30T09:30:17.371Z,76.94
2018-12-30T09:32:47.877Z,76.83
2018-12-30T09:35:17.823Z,76.70
2018-12-30T09:37:47.690Z,76.43
2018-12-30T09:40:17.684Z,76.28
2018-12-30T09:42:47.504Z,76.25
2018-12-30T09:45:17.402Z,75.99
2018-12-30T09:47:47.491Z,75.76
2018-12-30T09:50:17.325Z,75.73
2018-12-30T09:52:47.338Z,75.79
2018-12-30T09:55:17.806Z,75.65
2018-12-30T09:57:47.610Z,75.68
2018-12-30T10:00:17.742Z,75.68
2018-12-30T10:02:47.709Z,75.50
2018-12-30T10:05:18.899Z,75.64
2018-12-30T10:07:48.744Z,75.58
2018-12-30T10:10:21.039Z,75.55
2018-12-30T10:12:50.957Z,75.51
2018-12-30T10:15:20.805Z,75.51
2018-12-30T10:17:50.720Z,75.59
2018-12-30T10:20:20.618Z,75.84
2018-12-30T10:22:50.667Z,75.82
2018-12-30T10:25:21.416Z,75.36
2018-12-30T10:27:51.208Z,75.11
2018-12-30T10:30:21.029Z,75.01
2018-12-30T10:32:51.284Z,74.82
2018-12-30T10:35:21.401Z,74.52
2018-12-30T10:37:52.736Z,74.50
2018-12-30T10:40:23.045Z,74.64
2018-12-30T10:42:52.877Z,74.62
2018-12-30T10:45:22.876Z,74.53
2018-12-30T10:47:52.965Z,74.27
2018-12-30T10:50:23.290Z,74.22
2018-12-30T10:52:54.971Z,74.27
2018-12-30T10:55:28.503Z,74.53
2018-12-30T10:57:58.354Z,75.07
2018-12-30T11:00:27.848Z,75.34
2018-12-30T11:02:57.855Z,75.31
2018-12-30T11:05:28.458Z,75.27
2018-12-30T11:07:58.266Z,75.10
2018-12-30T11:10:27.793Z,75.19
2018-12-30T11:12:57.445Z,75.24
2018-12-30T11:15:27.121Z,75.33
2018-12-30T11:17:56.822Z,75.40
2018-12-30T11:20:27.530Z,75.43
2018-12-30T11:22:57.445Z,75.22
2018-12-30T11:25:27.359Z,75.08
2018-12-30T11:27:59.779Z,74.97
2018-12-30T11:30:29.416Z,75.17
2018-12-30T11:33:01.575Z,75.37
2018-12-30T11:35:31.181Z,75.19
2018-12-30T11:38:02.087Z,74.93
2018-12-30T11:40:31.840Z,74.72
2018-12-30T11:43:01.710Z,74.82
2018-12-30T11:45:31.372Z,74.69
2018-12-30T11:48:02.770Z,74.76
2018-12-30T11:50:32.580Z,74.52
2018-12-30T11:53:02.722Z,74.69
2018-12-30T11:55:32.893Z,74.61
2018-12-30T11:58:05.593Z,74.63
2018-12-30T12:00:35.596Z,74.51
2018-12-30T12:03:07.230Z,74.16
2018-12-30T12:05:37.088Z,74.04
2018-12-30T12:08:07.041Z,74.03
2018-12-30T12:10:36.708Z,73.79
2018-12-30T12:13:06.634Z,73.59
2018-12-30T12:15:36.194Z,73.77
2018-12-30T12:18:06.097Z,73.91
2018-12-30T12:20:35.778Z,73.92
2018-12-30T12:23:05.765Z,73.73
2018-12-30T12:25:35.771Z,73.65
2018-12-30T12:28:05.729Z,73.74
2018-12-30T12:30:35.649Z,73.82
2018-12-30T12:33:05.811Z,73.87
2018-12-30T12:35:35.807Z,73.85
2018-12-30T12:38:06.158Z,73.91
2018-12-30T12:40:36.175Z,73.93
2018-12-30T12:43:06.228Z,73.81
2018-12-30T12:45:35.721Z,73.92
2018-12-30T12:48:05.458Z,74.02
2018-12-30T12:50:35.187Z,74.07
2018-12-30T12:53:08.048Z,73.97
2018-12-30T12:55:37.784Z,73.93
2018-12-30T12:58:09.416Z,73.99
2018-12-30T13:00:39.256Z,74.16
2018-12-30T13:03:09.260Z,74.23
2018-12-30T13:05:39.119Z,74.16
2018-12-30T13:08:08.978Z,74.12
2018-12-30T13:10:38.903Z,74.09
2018-12-30T13:13:08.876Z,74.24
2018-12-30T13:15:38.763Z,74.53
2018-12-30T13:18:09.038Z,74.53
2018-12-30T13:20:40.064Z,74.39
2018-12-30T13:23:10.083Z,74.38
2018-12-30T13:25:39.937Z,74.41
2018-12-30T13:28:09.873Z,74.64
2018-12-30T13:30:39.729Z,74.60
2018-12-30T13:33:10.721Z,74.56
2018-12-30T13:35:43.548Z,74.69
2018-12-30T13:38:13.402Z,74.83
2018-12-30T13:40:44.977Z,75.38
2018-12-30T13:43:14.513Z,75.09
2018-12-30T13:45:44.463Z,75.07
2018-12-30T13:48:14.263Z,74.92
2018-12-30T13:50:44.279Z,74.83
2018-12-30T13:53:14.066Z,75.04
2018-12-30T13:55:43.769Z,74.92
2018-12-30T13:58:13.295Z,74.82
2018-12-30T14:00:43.500Z,75.05
2018-12-30T14:03:13.544Z,74.94
2018-12-30T14:05:43.752Z,75.13
2018-12-30T14:08:13.508Z,75.11
2018-12-30T14:10:43.474Z,75.23
2018-12-30T14:13:13.485Z,75.34
2018-12-30T14:15:50.610Z,75.29
2018-12-30T14:18:14.909Z,75.33
2018-12-30T14:20:44.786Z,75.28
2018-12-30T14:23:15.673Z,75.47
2018-12-30T14:25:45.941Z,75.77
2018-12-30T14:28:15.832Z,76.12
2018-12-30T14:30:45.971Z,75.91
2018-12-30T14:33:15.994Z,75.78
2018-12-30T14:35:45.835Z,75.89
2018-12-30T14:38:18.153Z,76.61
2018-12-30T14:40:48.079Z,76.61
2018-12-30T14:43:18.041Z,76.64
2018-12-30T14:45:48.173Z,76.72
2018-12-30T14:48:19.164Z,77.14
2018-12-30T14:50:49.046Z,77.20
2018-12-30T14:53:19.321Z,77.23
2018-12-30T14:55:49.345Z,77.41
2018-12-30T14:58:19.213Z,77.83
2018-12-30T15:00:49.485Z,77.73
2018-12-30T15:03:19.223Z,77.56
2018-12-30T15:05:49.984Z,77.53
2018-12-30T15:08:19.996Z,78.01
2018-12-30T15:10:52.512Z,78.15
2018-12-30T15:13:22.973Z,78.21
2018-12-30T15:15:52.811Z,78.03
2018-12-30T15:18:22.779Z,78.62
2018-12-30T15:20:52.879Z,78.71
2018-12-30T15:23:22.757Z,78.88
2018-12-30T15:25:52.679Z,78.84
2018-12-30T15:28:23.830Z,79.24
2018-12-30T15:30:53.709Z,79.64
2018-12-30T15:33:23.542Z,79.91
2018-12-30T15:35:53.413Z,79.85
2018-12-30T15:38:23.432Z,79.94
2018-12-30T15:40:53.647Z,80.12
2018-12-30T15:43:25.017Z,79.87
2018-12-30T15:46:01.953Z,79.57
2018-12-30T15:48:31.738Z,79.40
2018-12-30T15:51:02.725Z,79.34
2018-12-30T15:53:32.557Z,79.36
2018-12-30T15:56:02.544Z,79.16
2018-12-30T15:58:32.408Z,79.07
2018-12-30T16:01:02.718Z,78.95
2018-12-30T16:03:33.244Z,78.89
2018-12-30T16:06:07.363Z,79.00
2018-12-30T16:08:37.627Z,79.36
2018-12-30T16:11:07.971Z,79.48
2018-12-30T16:13:38.142Z,79.81
2018-12-30T16:16:08.089Z,79.94
2018-12-30T16:18:37.992Z,79.95
2018-12-30T16:21:12.266Z,80.01
2018-12-30T16:23:42.234Z,79.86
2018-12-30T16:26:11.949Z,79.92
2018-12-30T16:28:41.912Z,79.90
2018-12-30T16:31:11.978Z,79.78
2018-12-30T16:33:42.117Z,79.70
2018-12-30T16:36:11.986Z,79.86
2018-12-30T16:38:41.926Z,79.73
2018-12-30T16:41:12.067Z,79.92
2018-12-30T16:43:41.572Z,79.92
2018-12-30T16:46:13.962Z,79.75
2018-12-30T16:48:46.065Z,79.61
2018-12-30T16:51:16.735Z,79.61
2018-12-30T16:53:49.773Z,79.76
2018-12-30T16:56:19.568Z,79.64
2018-12-30T16:58:49.521Z,79.78
2018-12-30T17:01:19.508Z,79.79
2018-12-30T17:03:49.646Z,79.78
2018-12-30T17:06:19.711Z,79.68
2018-12-30T17:08:50.040Z,79.79
2018-12-30T17:11:20.023Z,79.70
2018-12-30T17:13:49.999Z,79.80
2018-12-30T17:16:19.932Z,79.82
2018-12-30T17:18:55.906Z,79.87
2018-12-30T17:21:21.425Z,79.76
2018-12-30T17:23:51.021Z,79.85
2018-12-30T17:26:23.706Z,80.21
2018-12-30T17:28:53.281Z,80.58
2018-12-30T17:31:23.272Z,80.77
2018-12-30T17:33:53.106Z,80.72
2018-12-30T17:36:24.334Z,80.91
2018-12-30T17:38:54.356Z,81.10
2018-12-30T17:41:24.463Z,81.04
2018-12-30T17:43:58.856Z,81.18
2018-12-30T17:46:26.708Z,81.20
2018-12-30T17:48:58.342Z,81.44
2018-12-30T17:51:28.331Z,81.66
2018-12-30T17:53:58.263Z,82.08
2018-12-30T17:56:28.347Z,82.12
2018-12-30T17:58:58.302Z,82.33
2018-12-30T18:01:28.559Z,82.40
2018-12-30T18:03:58.732Z,82.43
2018-12-30T18:06:29.933Z,82.81
2018-12-30T18:09:02.645Z,82.90
2018-12-30T18:11:32.600Z,82.72
2018-12-30T18:14:04.116Z,82.81
2018-12-30T18:16:34.251Z,82.73
2018-12-30T18:19:04.197Z,83.21
2018-12-30T18:21:34.123Z,83.02
2018-12-30T18:24:04.300Z,82.92
2018-12-30T18:26:38.017Z,83.15
2018-12-30T18:29:09.443Z,83.22
2018-12-30T18:31:39.754Z,83.24
2018-12-30T18:34:09.573Z,83.22
2018-12-30T18:36:40.001Z,83.29
2018-12-30T18:39:09.548Z,83.25
2018-12-30T18:41:39.431Z,83.30
2018-12-30T18:44:09.936Z,83.29
2018-12-30T18:46:39.999Z,83.18
2018-12-30T18:49:09.832Z,83.32
2018-12-30T18:51:39.742Z,83.25
2018-12-30T18:54:10.344Z,83.50
2018-12-30T18:56:40.468Z,83.36
2018-12-30T18:59:10.491Z,83.69
2018-12-30T19:01:40.676Z,83.76
2018-12-30T19:04:10.526Z,84.14
2018-12-30T19:06:40.679Z,83.88
2018-12-30T19:09:10.826Z,83.66
2018-12-30T19:11:40.680Z,83.61
2018-12-30T19:14:11.692Z,83.74
2018-12-30T19:16:45.716Z,83.74
2018-12-30T19:19:15.744Z,83.75
2018-12-30T19:21:46.044Z,83.85
2018-12-30T19:24:18.616Z,83.80
2018-12-30T19:26:48.232Z,83.85
2018-12-30T19:29:18.265Z,83.86
2018-12-30T19:31:47.851Z,83.89
2018-12-30T19:34:21.308Z,83.87
2018-12-30T19:36:51.240Z,83.83
2018-12-30T19:39:22.120Z,83.83
2018-12-30T19:41:54.593Z,83.93
2018-12-30T19:44:30.212Z,83.84
2018-12-30T19:46:59.760Z,83.80
2018-12-30T19:49:31.493Z,83.77
2018-12-30T19:52:01.491Z,83.77
2018-12-30T19:54:31.701Z,83.68
2018-12-30T19:57:01.618Z,83.72
2018-12-30T19:59:31.652Z,83.84
2018-12-30T20:02:01.611Z,83.82
2018-12-30T20:04:31.712Z,83.78
2018-12-30T20:07:01.637Z,83.85
2018-12-30T20:09:31.588Z,83.79
2018-12-30T20:12:02.742Z,83.78
2018-12-30T20:14:32.718Z,83.79
2018-12-30T20:17:02.449Z,83.72
2018-12-30T20:19:33.487Z,83.65
2018-12-30T20:22:03.144Z,83.70
2018-12-30T20:24:32.764Z,83.88
2018-12-30T20:27:04.364Z,84.02
2018-12-30T20:29:34.029Z,83.88
2018-12-30T20:32:03.561Z,83.78
2018-12-30T20:34:34.908Z,83.74
2018-12-30T20:37:04.461Z,84.12
2018-12-30T20:39:34.017Z,84.03
2018-12-30T20:42:10.993Z,83.98
2018-12-30T20:44:40.998Z,83.94
2018-12-30T20:47:10.973Z,83.85
2018-12-30T20:49:44.200Z,83.77
2018-12-30T20:52:13.773Z,83.83
2018-12-30T20:54:43.586Z,83.95
2018-12-30T20:57:13.411Z,84.06
2018-12-30T20:59:43.123Z,84.11
2018-12-30T21:02:14.190Z,84.24
2018-12-30T21:04:43.763Z,84.28
2018-12-30T21:07:13.301Z,84.48
2018-12-30T21:09:42.910Z,84.48
2018-12-30T21:12:14.618Z,84.60
2018-12-30T21:14:44.211Z,84.76
2018-12-30T21:17:13.753Z,84.78
2018-12-30T21:19:45.827Z,84.86
2018-12-30T21:22:15.803Z,85.08
2018-12-30T21:24:45.375Z,85.00
2018-12-30T21:27:14.924Z,85.01
2018-12-30T21:29:44.500Z,85.07
2018-12-30T21:32:16.449Z,85.18
2018-12-30T21:34:46.001Z,85.31
2018-12-30T21:37:19.876Z,85.31
2018-12-30T21:39:49.412Z,85.31
2018-12-30T21:42:18.959Z,85.31
2018-12-30T21:44:49.276Z,85.27
2018-12-30T21:47:21.558Z,85.51
2018-12-30T21:49:54.309Z,85.55
2018-12-30T21:52:25.854Z,85.51
2018-12-30T21:54:57.441Z,85.51
2018-12-30T21:57:27.281Z,85.70
2018-12-30T21:59:57.052Z,85.72
2018-12-30T22:02:29.768Z,85.72
2018-12-30T22:04:59.501Z,85.96
2018-12-30T22:07:29.093Z,85.87
2018-12-30T22:09:58.653Z,85.88
2018-12-30T22:12:29.869Z,85.91
2018-12-30T22:14:59.781Z,85.89
2018-12-30T22:17:30.014Z,85.83
2018-12-30T22:19:59.537Z,85.77
2018-12-30T22:22:29.704Z,85.74
2018-12-30T22:24:59.232Z,85.73
2018-12-30T22:27:28.785Z,85.71
2018-12-30T22:29:58.333Z,85.70
2018-12-30T22:32:27.886Z,85.67
2018-12-30T22:34:59.258Z,85.68
2018-12-30T22:37:29.244Z,85.75
2018-12-30T22:39:58.825Z,85.76
2018-12-30T22:42:32.600Z,85.86
2018-12-30T22:44:59.659Z,85.84
2018-12-30T22:47:29.237Z,85.86
2018-12-30T22:49:58.829Z,85.85
2018-12-30T22:52:31.470Z,85.81
2018-12-30T22:55:01.380Z,85.85
2018-12-30T22:57:30.949Z,85.99
2018-12-30T23:00:00.508Z,86.01
2018-12-30T23:02:31.741Z,85.99
2018-12-30T23:05:01.297Z,85.99
2018-12-30T23:07:30.830Z,85.99
2018-12-30T23:10:00.357Z,85.96
2018-12-30T23:12:33.551Z,85.94
2018-12-30T23:15:02.990Z,86.05
2018-12-30T23:17:32.497Z,86.32
2018-12-30T23:20:02.016Z,86.32
2018-12-30T23:22:33.953Z,86.31
2018-12-30T23:25:03.746Z,86.48
2018-12-30T23:27:33.655Z,86.42
2018-12-30T23:30:03.247Z,86.41
2018-12-30T23:32:32.803Z,87.03
2018-12-30T23:35:02.361Z,86.94
2018-12-30T23:37:31.925Z,86.84
2018-12-30T23:40:01.492Z,86.81
2018-12-30T23:42:31.049Z,86.72
2018-12-30T23:45:00.643Z,86.74
2018-12-30T23:47:30.162Z,86.70
2018-12-30T23:50:01.690Z,86.67
2018-12-30T23:52:31.291Z,86.63
2018-12-30T23:55:02.157Z,86.79
2018-12-30T23:57:31.696Z,86.94
